sensor_id;sensor_type;location;lat;lon;timestamp;P1;durP1;ratioP1;P2;durP2;ratioP2
67100;SDS011;54019;61.746;16.106;2023-05-10T00:01:26;0.30;;;0.30;;
67100;SDS011;54019;61.746;16.106;2023-05-10T00:03:52;1.10;;;0.30;;
67100;SDS011;54019;61.746;16.106;2023-05-10T00:06:19;0.25;;;0.25;;
67100;SDS011;54019;61.746;16.106;2023-05-10T00:08:45;0.20;;;0.20;;
67100;SDS011;54019;61.746;16.106;2023-05-10T00:11:11;0.30;;;0.30;;
67100;SDS011;54019;61.746;16.106;2023-05-10T00:13:36;0.20;;;0.20;;
67100;SDS011;54019;61.746;16.106;2023-05-10T00:16:02;0.68;;;0.35;;
67100;SDS011;54019;61.746;16.106;2023-05-10T00:18:28;0.30;;;0.30;;
67100;SDS011;54019;61.746;16.106;2023-05-10T00:20:54;0.30;;;0.30;;
67100;SDS011;54019;61.746;16.106;2023-05-10T00:23:21;0.43;;;0.40;;
67100;SDS011;54019;61.746;16.106;2023-05-10T00:25:47;0.38;;;0.38;;
67100;SDS011;54019;61.746;16.106;2023-05-10T00:28:13;0.32;;;0.30;;
67100;SDS011;54019;61.746;16.106;2023-05-10T00:30:39;0.30;;;0.30;;
67100;SDS011;54019;61.746;16.106;2023-05-10T00:33:04;0.30;;;0.30;;
67100;SDS011;54019;61.746;16.106;2023-05-10T00:35:30;0.65;;;0.50;;
67100;SDS011;54019;61.746;16.106;2023-05-10T00:37:56;0.40;;;0.30;;
67100;SDS011;54019;61.746;16.106;2023-05-10T00:40:23;0.82;;;0.30;;
67100;SDS011;54019;61.746;16.106;2023-05-10T00:42:49;0.30;;;0.30;;
67100;SDS011;54019;61.746;16.106;2023-05-10T00:45:15;0.65;;;0.40;;
67100;SDS011;54019;61.746;16.106;2023-05-10T00:47:41;0.65;;;0.43;;
67100;SDS011;54019;61.746;16.106;2023-05-10T00:50:07;0.30;;;0.30;;
67100;SDS011;54019;61.746;16.106;2023-05-10T00:52:33;0.30;;;0.30;;
67100;SDS011;54019;61.746;16.106;2023-05-10T00:54:59;0.98;;;0.40;;
67100;SDS011;54019;61.746;16.106;2023-05-10T00:57:27;0.32;;;0.30;;
67100;SDS011;54019;61.746;16.106;2023-05-10T00:59:52;1.33;;;0.40;;
67100;SDS011;54019;61.746;16.106;2023-05-10T01:02:19;0.75;;;0.38;;
67100;SDS011;54019;61.746;16.106;2023-05-10T01:04:44;0.47;;;0.40;;
67100;SDS011;54019;61.746;16.106;2023-05-10T01:07:10;1.48;;;0.40;;
67100;SDS011;54019;61.746;16.106;2023-05-10T01:09:36;0.35;;;0.35;;
67100;SDS011;54019;61.746;16.106;2023-05-10T01:12:02;0.38;;;0.38;;
67100;SDS011;54019;61.746;16.106;2023-05-10T01:14:30;0.50;;;0.43;;
67100;SDS011;54019;61.746;16.106;2023-05-10T01:16:56;1.38;;;0.40;;
67100;SDS011;54019;61.746;16.106;2023-05-10T01:19:22;0.22;;;0.22;;
67100;SDS011;54019;61.746;16.106;2023-05-10T01:21:52;0.63;;;0.40;;
67100;SDS011;54019;61.746;16.106;2023-05-10T01:24:32;0.45;;;0.45;;
67100;SDS011;54019;61.746;16.106;2023-05-10T01:27:12;1.65;;;0.50;;
67100;SDS011;54019;61.746;16.106;2023-05-10T01:33:00;1.75;;;0.35;;
67100;SDS011;54019;61.746;16.106;2023-05-10T01:35:35;0.40;;;0.40;;
67100;SDS011;54019;61.746;16.106;2023-05-10T01:38:07;0.98;;;0.43;;
67100;SDS011;54019;61.746;16.106;2023-05-10T01:40:42;0.60;;;0.30;;
67100;SDS011;54019;61.746;16.106;2023-05-10T01:43:17;0.45;;;0.40;;
67100;SDS011;54019;61.746;16.106;2023-05-10T01:45:50;0.40;;;0.40;;
67100;SDS011;54019;61.746;16.106;2023-05-10T01:48:23;0.30;;;0.30;;
67100;SDS011;54019;61.746;16.106;2023-05-10T01:50:51;0.63;;;0.40;;
67100;SDS011;54019;61.746;16.106;2023-05-10T01:53:18;0.57;;;0.40;;
67100;SDS011;54019;61.746;16.106;2023-05-10T01:55:46;0.32;;;0.32;;
67100;SDS011;54019;61.746;16.106;2023-05-10T01:58:25;0.40;;;0.30;;
67100;SDS011;54019;61.746;16.106;2023-05-10T02:00:54;0.68;;;0.50;;
67100;SDS011;54019;61.746;16.106;2023-05-10T02:03:24;0.82;;;0.43;;
67100;SDS011;54019;61.746;16.106;2023-05-10T02:05:52;0.63;;;0.50;;
67100;SDS011;54019;61.746;16.106;2023-05-10T02:08:19;0.68;;;0.40;;
67100;SDS011;54019;61.746;16.106;2023-05-10T02:10:47;0.30;;;0.30;;
67100;SDS011;54019;61.746;16.106;2023-05-10T02:13:17;0.38;;;0.38;;
67100;SDS011;54019;61.746;16.106;2023-05-10T02:15:43;0.50;;;0.38;;
67100;SDS011;54019;61.746;16.106;2023-05-10T02:18:12;0.20;;;0.20;;
67100;SDS011;54019;61.746;16.106;2023-05-10T02:20:40;0.63;;;0.30;;
67100;SDS011;54019;61.746;16.106;2023-05-10T02:23:08;0.63;;;0.50;;
67100;SDS011;54019;61.746;16.106;2023-05-10T02:25:34;0.63;;;0.40;;
67100;SDS011;54019;61.746;16.106;2023-05-10T02:28:03;0.50;;;0.50;;
67100;SDS011;54019;61.746;16.106;2023-05-10T02:30:31;0.47;;;0.40;;
67100;SDS011;54019;61.746;16.106;2023-05-10T02:32:58;0.43;;;0.40;;
67100;SDS011;54019;61.746;16.106;2023-05-10T02:35:25;0.40;;;0.40;;
67100;SDS011;54019;61.746;16.106;2023-05-10T02:37:53;0.30;;;0.30;;
67100;SDS011;54019;61.746;16.106;2023-05-10T02:40:20;0.30;;;0.30;;
67100;SDS011;54019;61.746;16.106;2023-05-10T02:42:48;0.47;;;0.47;;
67100;SDS011;54019;61.746;16.106;2023-05-10T02:45:18;0.32;;;0.32;;
67100;SDS011;54019;61.746;16.106;2023-05-10T02:47:46;0.40;;;0.40;;
67100;SDS011;54019;61.746;16.106;2023-05-10T02:50:13;0.47;;;0.40;;
67100;SDS011;54019;61.746;16.106;2023-05-10T02:52:39;0.40;;;0.40;;
67100;SDS011;54019;61.746;16.106;2023-05-10T02:55:09;0.30;;;0.30;;
67100;SDS011;54019;61.746;16.106;2023-05-10T02:57:40;0.55;;;0.45;;
67100;SDS011;54019;61.746;16.106;2023-05-10T03:02:37;0.75;;;0.50;;
67100;SDS011;54019;61.746;16.106;2023-05-10T03:05:03;1.38;;;0.40;;
67100;SDS011;54019;61.746;16.106;2023-05-10T03:07:29;0.40;;;0.40;;
67100;SDS011;54019;61.746;16.106;2023-05-10T03:09:55;0.40;;;0.40;;
67100;SDS011;54019;61.746;16.106;2023-05-10T03:12:23;0.40;;;0.40;;
67100;SDS011;54019;61.746;16.106;2023-05-10T03:15:09;0.95;;;0.50;;
67100;SDS011;54019;61.746;16.106;2023-05-10T03:17:45;0.50;;;0.40;;
67100;SDS011;54019;61.746;16.106;2023-05-10T03:20:15;0.55;;;0.55;;
67100;SDS011;54019;61.746;16.106;2023-05-10T03:22:47;1.02;;;0.30;;
67100;SDS011;54019;61.746;16.106;2023-05-10T03:25:18;1.58;;;0.50;;
67100;SDS011;54019;61.746;16.106;2023-05-10T03:27:47;1.08;;;0.50;;
67100;SDS011;54019;61.746;16.106;2023-05-10T03:30:13;1.48;;;0.40;;
67100;SDS011;54019;61.746;16.106;2023-05-10T03:32:39;0.50;;;0.50;;
67100;SDS011;54019;61.746;16.106;2023-05-10T03:35:06;0.45;;;0.40;;
67100;SDS011;54019;61.746;16.106;2023-05-10T03:37:32;0.50;;;0.40;;
67100;SDS011;54019;61.746;16.106;2023-05-10T03:39:58;0.50;;;0.50;;
67100;SDS011;54019;61.746;16.106;2023-05-10T03:42:23;1.48;;;0.40;;
67100;SDS011;54019;61.746;16.106;2023-05-10T03:44:51;0.47;;;0.40;;
67100;SDS011;54019;61.746;16.106;2023-05-10T03:47:16;0.40;;;0.40;;
67100;SDS011;54019;61.746;16.106;2023-05-10T03:49:42;4.68;;;0.50;;
67100;SDS011;54019;61.746;16.106;2023-05-10T03:52:08;0.73;;;0.50;;
67100;SDS011;54019;61.746;16.106;2023-05-10T03:54:34;0.55;;;0.30;;
67100;SDS011;54019;61.746;16.106;2023-05-10T03:57:00;1.17;;;0.43;;
67100;SDS011;54019;61.746;16.106;2023-05-10T03:59:25;5.30;;;0.50;;
67100;SDS011;54019;61.746;16.106;2023-05-10T04:01:53;0.30;;;0.30;;
67100;SDS011;54019;61.746;16.106;2023-05-10T04:04:19;0.85;;;0.30;;
67100;SDS011;54019;61.746;16.106;2023-05-10T04:06:45;1.63;;;0.50;;
67100;SDS011;54019;61.746;16.106;2023-05-10T04:09:11;3.50;;;0.40;;
67100;SDS011;54019;61.746;16.106;2023-05-10T04:11:37;0.60;;;0.57;;
67100;SDS011;54019;61.746;16.106;2023-05-10T04:14:05;1.65;;;0.40;;
67100;SDS011;54019;61.746;16.106;2023-05-10T04:16:31;1.38;;;0.50;;
67100;SDS011;54019;61.746;16.106;2023-05-10T04:18:59;2.20;;;0.52;;
67100;SDS011;54019;61.746;16.106;2023-05-10T04:21:24;0.40;;;0.40;;
67100;SDS011;54019;61.746;16.106;2023-05-10T04:23:50;0.52;;;0.38;;
67100;SDS011;54019;61.746;16.106;2023-05-10T04:26:16;1.42;;;0.47;;
67100;SDS011;54019;61.746;16.106;2023-05-10T04:28:42;0.40;;;0.40;;
67100;SDS011;54019;61.746;16.106;2023-05-10T04:31:08;0.40;;;0.40;;
67100;SDS011;54019;61.746;16.106;2023-05-10T04:33:34;0.57;;;0.47;;
67100;SDS011;54019;61.746;16.106;2023-05-10T04:36:02;1.40;;;0.43;;
67100;SDS011;54019;61.746;16.106;2023-05-10T04:38:29;0.30;;;0.30;;
67100;SDS011;54019;61.746;16.106;2023-05-10T04:41:03;1.48;;;0.43;;
67100;SDS011;54019;61.746;16.106;2023-05-10T04:43:29;0.40;;;0.40;;
67100;SDS011;54019;61.746;16.106;2023-05-10T04:45:55;0.90;;;0.47;;
67100;SDS011;54019;61.746;16.106;2023-05-10T04:48:21;1.65;;;0.50;;
67100;SDS011;54019;61.746;16.106;2023-05-10T04:50:47;1.92;;;0.43;;
67100;SDS011;54019;61.746;16.106;2023-05-10T04:53:14;7.63;;;0.70;;
67100;SDS011;54019;61.746;16.106;2023-05-10T04:55:40;1.48;;;0.45;;
67100;SDS011;54019;61.746;16.106;2023-05-10T04:58:06;1.02;;;0.40;;
67100;SDS011;54019;61.746;16.106;2023-05-10T05:00:32;1.70;;;0.38;;
67100;SDS011;54019;61.746;16.106;2023-05-10T05:02:58;1.85;;;0.30;;
67100;SDS011;54019;61.746;16.106;2023-05-10T05:05:24;1.77;;;0.43;;
67100;SDS011;54019;61.746;16.106;2023-05-10T05:07:50;13.02;;;1.30;;
67100;SDS011;54019;61.746;16.106;2023-05-10T05:10:17;35.38;;;6.88;;
67100;SDS011;54019;61.746;16.106;2023-05-10T05:12:43;14.27;;;2.20;;
67100;SDS011;54019;61.746;16.106;2023-05-10T05:15:09;7.88;;;1.55;;
67100;SDS011;54019;61.746;16.106;2023-05-10T05:17:35;13.63;;;1.55;;
67100;SDS011;54019;61.746;16.106;2023-05-10T05:20:01;19.33;;;2.00;;
67100;SDS011;54019;61.746;16.106;2023-05-10T05:22:28;12.57;;;2.00;;
67100;SDS011;54019;61.746;16.106;2023-05-10T05:24:53;9.13;;;1.38;;
67100;SDS011;54019;61.746;16.106;2023-05-10T05:27:21;3.22;;;1.23;;
67100;SDS011;54019;61.746;16.106;2023-05-10T05:29:46;6.82;;;1.20;;
67100;SDS011;54019;61.746;16.106;2023-05-10T05:32:12;6.90;;;1.27;;
67100;SDS011;54019;61.746;16.106;2023-05-10T05:34:38;6.57;;;1.05;;
67100;SDS011;54019;61.746;16.106;2023-05-10T05:37:04;6.00;;;1.17;;
67100;SDS011;54019;61.746;16.106;2023-05-10T05:39:29;11.77;;;1.52;;
67100;SDS011;54019;61.746;16.106;2023-05-10T05:41:55;4.25;;;0.80;;
67100;SDS011;54019;61.746;16.106;2023-05-10T05:44:23;4.03;;;0.80;;
67100;SDS011;54019;61.746;16.106;2023-05-10T05:46:48;2.97;;;0.80;;
67100;SDS011;54019;61.746;16.106;2023-05-10T05:49:14;1.85;;;0.68;;
67100;SDS011;54019;61.746;16.106;2023-05-10T05:51:40;3.72;;;0.80;;
67100;SDS011;54019;61.746;16.106;2023-05-10T05:54:06;4.75;;;0.70;;
67100;SDS011;54019;61.746;16.106;2023-05-10T05:56:32;2.67;;;0.52;;
67100;SDS011;54019;61.746;16.106;2023-05-10T05:58:58;2.47;;;0.55;;
67100;SDS011;54019;61.746;16.106;2023-05-10T06:01:25;4.95;;;0.63;;
67100;SDS011;54019;61.746;16.106;2023-05-10T06:03:51;1.52;;;0.57;;
67100;SDS011;54019;61.746;16.106;2023-05-10T06:06:17;2.25;;;0.60;;
67100;SDS011;54019;61.746;16.106;2023-05-10T06:08:43;1.42;;;0.70;;
67100;SDS011;54019;61.746;16.106;2023-05-10T06:11:08;1.35;;;0.60;;
67100;SDS011;54019;61.746;16.106;2023-05-10T06:13:34;0.40;;;0.40;;
67100;SDS011;54019;61.746;16.106;2023-05-10T06:16:00;3.75;;;0.50;;
67100;SDS011;54019;61.746;16.106;2023-05-10T06:18:28;1.42;;;0.43;;
67100;SDS011;54019;61.746;16.106;2023-05-10T06:20:54;0.40;;;0.40;;
67100;SDS011;54019;61.746;16.106;2023-05-10T06:23:20;3.50;;;0.60;;
67100;SDS011;54019;61.746;16.106;2023-05-10T06:25:45;1.17;;;0.55;;
67100;SDS011;54019;61.746;16.106;2023-05-10T06:28:11;0.82;;;0.57;;
67100;SDS011;54019;61.746;16.106;2023-05-10T06:30:37;1.02;;;0.57;;
67100;SDS011;54019;61.746;16.106;2023-05-10T06:33:03;1.67;;;0.60;;
67100;SDS011;54019;61.746;16.106;2023-05-10T06:35:30;0.47;;;0.40;;
67100;SDS011;54019;61.746;16.106;2023-05-10T06:37:55;3.13;;;0.63;;
67100;SDS011;54019;61.746;16.106;2023-05-10T06:40:21;2.92;;;0.50;;
67100;SDS011;54019;61.746;16.106;2023-05-10T06:42:47;1.10;;;0.50;;
67100;SDS011;54019;61.746;16.106;2023-05-10T06:45:13;3.10;;;0.60;;
67100;SDS011;54019;61.746;16.106;2023-05-10T06:47:39;7.50;;;0.70;;
67100;SDS011;54019;61.746;16.106;2023-05-10T06:50:06;0.60;;;0.50;;
67100;SDS011;54019;61.746;16.106;2023-05-10T06:52:34;1.05;;;0.55;;
67100;SDS011;54019;61.746;16.106;2023-05-10T06:55:00;2.72;;;0.50;;
67100;SDS011;54019;61.746;16.106;2023-05-10T06:57:25;1.25;;;0.70;;
67100;SDS011;54019;61.746;16.106;2023-05-10T06:59:51;1.65;;;0.50;;
67100;SDS011;54019;61.746;16.106;2023-05-10T07:02:17;1.95;;;0.57;;
67100;SDS011;54019;61.746;16.106;2023-05-10T07:04:43;1.25;;;0.52;;
67100;SDS011;54019;61.746;16.106;2023-05-10T07:07:09;1.83;;;0.52;;
67100;SDS011;54019;61.746;16.106;2023-05-10T07:09:36;0.95;;;0.60;;
67100;SDS011;54019;61.746;16.106;2023-05-10T07:12:02;0.60;;;0.50;;
67100;SDS011;54019;61.746;16.106;2023-05-10T07:14:28;0.43;;;0.40;;
67100;SDS011;54019;61.746;16.106;2023-05-10T07:16:53;0.95;;;0.50;;
67100;SDS011;54019;61.746;16.106;2023-05-10T07:19:19;0.47;;;0.47;;
67100;SDS011;54019;61.746;16.106;2023-05-10T07:21:45;1.23;;;0.60;;
67100;SDS011;54019;61.746;16.106;2023-05-10T07:24:11;0.75;;;0.38;;
67100;SDS011;54019;61.746;16.106;2023-05-10T07:26:38;0.50;;;0.50;;
67100;SDS011;54019;61.746;16.106;2023-05-10T07:29:04;1.13;;;0.50;;
67100;SDS011;54019;61.746;16.106;2023-05-10T07:31:29;1.35;;;0.50;;
67100;SDS011;54019;61.746;16.106;2023-05-10T07:33:55;2.50;;;0.50;;
67100;SDS011;54019;61.746;16.106;2023-05-10T07:36:21;3.65;;;0.70;;
67100;SDS011;54019;61.746;16.106;2023-05-10T07:38:47;2.13;;;0.88;;
67100;SDS011;54019;61.746;16.106;2023-05-10T07:41:12;1.88;;;0.80;;
67100;SDS011;54019;61.746;16.106;2023-05-10T07:43:40;0.73;;;0.60;;
67100;SDS011;54019;61.746;16.106;2023-05-10T07:46:05;1.10;;;0.60;;
67100;SDS011;54019;61.746;16.106;2023-05-10T07:48:31;1.75;;;0.60;;
67100;SDS011;54019;61.746;16.106;2023-05-10T07:50:57;2.95;;;0.50;;
67100;SDS011;54019;61.746;16.106;2023-05-10T07:53:23;1.27;;;0.55;;
67100;SDS011;54019;61.746;16.106;2023-05-10T07:55:49;0.90;;;0.52;;
67100;SDS011;54019;61.746;16.106;2023-05-10T07:58:15;2.28;;;0.50;;
67100;SDS011;54019;61.746;16.106;2023-05-10T08:00:43;2.85;;;0.80;;
67100;SDS011;54019;61.746;16.106;2023-05-10T08:03:08;0.50;;;0.50;;
67100;SDS011;54019;61.746;16.106;2023-05-10T08:05:34;2.08;;;0.60;;
67100;SDS011;54019;61.746;16.106;2023-05-10T08:08:00;1.35;;;0.50;;
67100;SDS011;54019;61.746;16.106;2023-05-10T08:10:26;0.70;;;0.50;;
67100;SDS011;54019;61.746;16.106;2023-05-10T08:12:51;0.70;;;0.60;;
67100;SDS011;54019;61.746;16.106;2023-05-10T08:15:17;1.23;;;0.60;;
67100;SDS011;54019;61.746;16.106;2023-05-10T08:17:44;0.68;;;0.50;;
67100;SDS011;54019;61.746;16.106;2023-05-10T08:20:10;0.60;;;0.60;;
67100;SDS011;54019;61.746;16.106;2023-05-10T08:22:36;1.95;;;0.70;;
67100;SDS011;54019;61.746;16.106;2023-05-10T08:25:02;3.53;;;0.90;;
67100;SDS011;54019;61.746;16.106;2023-05-10T08:27:28;13.05;;;1.48;;
67100;SDS011;54019;61.746;16.106;2023-05-10T08:29:54;3.88;;;1.33;;
67100;SDS011;54019;61.746;16.106;2023-05-10T08:32:20;5.45;;;1.50;;
67100;SDS011;54019;61.746;16.106;2023-05-10T08:34:47;6.60;;;1.70;;
67100;SDS011;54019;61.746;16.106;2023-05-10T08:37:13;5.25;;;1.83;;
67100;SDS011;54019;61.746;16.106;2023-05-10T08:39:38;2.17;;;1.30;;
67100;SDS011;54019;61.746;16.106;2023-05-10T08:42:04;2.42;;;1.50;;
67100;SDS011;54019;61.746;16.106;2023-05-10T08:44:31;3.20;;;1.33;;
67100;SDS011;54019;61.746;16.106;2023-05-10T08:46:59;2.20;;;1.40;;
67100;SDS011;54019;61.746;16.106;2023-05-10T08:49:26;2.35;;;1.67;;
67100;SDS011;54019;61.746;16.106;2023-05-10T08:51:56;1.70;;;1.20;;
67100;SDS011;54019;61.746;16.106;2023-05-10T08:54:24;1.92;;;1.30;;
67100;SDS011;54019;61.746;16.106;2023-05-10T08:56:50;3.50;;;1.52;;
67100;SDS011;54019;61.746;16.106;2023-05-10T08:59:16;1.58;;;1.15;;
67100;SDS011;54019;61.746;16.106;2023-05-10T09:01:42;2.83;;;1.33;;
67100;SDS011;54019;61.746;16.106;2023-05-10T09:04:09;1.48;;;1.27;;
67100;SDS011;54019;61.746;16.106;2023-05-10T09:06:35;2.78;;;1.42;;
67100;SDS011;54019;61.746;16.106;2023-05-10T09:09:03;2.83;;;1.38;;
67100;SDS011;54019;61.746;16.106;2023-05-10T09:11:29;1.60;;;1.38;;
67100;SDS011;54019;61.746;16.106;2023-05-10T09:13:55;1.85;;;1.00;;
67100;SDS011;54019;61.746;16.106;2023-05-10T09:16:21;1.52;;;0.93;;
67100;SDS011;54019;61.746;16.106;2023-05-10T09:18:47;1.75;;;1.10;;
67100;SDS011;54019;61.746;16.106;2023-05-10T09:21:13;1.35;;;1.05;;
67100;SDS011;54019;61.746;16.106;2023-05-10T09:23:42;1.55;;;1.08;;
67100;SDS011;54019;61.746;16.106;2023-05-10T09:26:09;1.83;;;1.00;;
67100;SDS011;54019;61.746;16.106;2023-05-10T09:28:49;2.65;;;1.13;;
67100;SDS011;54019;61.746;16.106;2023-05-10T09:31:16;1.73;;;1.10;;
67100;SDS011;54019;61.746;16.106;2023-05-10T09:33:43;1.40;;;1.13;;
67100;SDS011;54019;61.746;16.106;2023-05-10T09:36:09;1.42;;;1.00;;
67100;SDS011;54019;61.746;16.106;2023-05-10T09:38:44;4.57;;;1.10;;
67100;SDS011;54019;61.746;16.106;2023-05-10T09:41:16;3.97;;;0.95;;
67100;SDS011;54019;61.746;16.106;2023-05-10T09:43:42;5.35;;;1.10;;
67100;SDS011;54019;61.746;16.106;2023-05-10T09:46:08;4.45;;;0.80;;
67100;SDS011;54019;61.746;16.106;2023-05-10T09:48:34;3.05;;;0.98;;
67100;SDS011;54019;61.746;16.106;2023-05-10T09:51:05;4.97;;;1.00;;
67100;SDS011;54019;61.746;16.106;2023-05-10T09:53:30;3.20;;;1.10;;
67100;SDS011;54019;61.746;16.106;2023-05-10T09:55:56;10.35;;;1.08;;
67100;SDS011;54019;61.746;16.106;2023-05-10T09:58:23;9.85;;;1.27;;
67100;SDS011;54019;61.746;16.106;2023-05-10T10:00:49;3.80;;;1.08;;
67100;SDS011;54019;61.746;16.106;2023-05-10T10:03:16;10.35;;;1.52;;
67100;SDS011;54019;61.746;16.106;2023-05-10T10:05:45;3.20;;;0.90;;
67100;SDS011;54019;61.746;16.106;2023-05-10T10:08:12;2.10;;;0.93;;
67100;SDS011;54019;61.746;16.106;2023-05-10T10:10:39;2.67;;;0.75;;
67100;SDS011;54019;61.746;16.106;2023-05-10T10:13:05;2.97;;;0.85;;
67100;SDS011;54019;61.746;16.106;2023-05-10T10:15:33;2.05;;;0.82;;
67100;SDS011;54019;61.746;16.106;2023-05-10T10:17:59;1.27;;;0.80;;
67100;SDS011;54019;61.746;16.106;2023-05-10T10:20:26;4.32;;;0.85;;
67100;SDS011;54019;61.746;16.106;2023-05-10T10:22:52;1.40;;;0.95;;
67100;SDS011;54019;61.746;16.106;2023-05-10T10:25:18;0.88;;;0.70;;
67100;SDS011;54019;61.746;16.106;2023-05-10T10:27:48;3.95;;;1.00;;
67100;SDS011;54019;61.746;16.106;2023-05-10T10:30:23;2.30;;;0.80;;
67100;SDS011;54019;61.746;16.106;2023-05-10T10:33:01;1.85;;;0.80;;
67100;SDS011;54019;61.746;16.106;2023-05-10T10:35:43;3.38;;;1.13;;
67100;SDS011;54019;61.746;16.106;2023-05-10T10:38:10;1.25;;;0.90;;
67100;SDS011;54019;61.746;16.106;2023-05-10T10:40:38;1.20;;;0.75;;
67100;SDS011;54019;61.746;16.106;2023-05-10T10:43:23;2.42;;;0.70;;
67100;SDS011;54019;61.746;16.106;2023-05-10T10:48:48;2.30;;;0.70;;
67100;SDS011;54019;61.746;16.106;2023-05-10T10:51:15;0.77;;;0.70;;
67100;SDS011;54019;61.746;16.106;2023-05-10T10:53:41;1.48;;;0.75;;
67100;SDS011;54019;61.746;16.106;2023-05-10T10:56:08;1.30;;;0.85;;
67100;SDS011;54019;61.746;16.106;2023-05-10T10:58:38;2.15;;;0.70;;
67100;SDS011;54019;61.746;16.106;2023-05-10T11:01:10;1.42;;;0.80;;
67100;SDS011;54019;61.746;16.106;2023-05-10T11:03:37;1.48;;;0.70;;
67100;SDS011;54019;61.746;16.106;2023-05-10T11:06:05;2.25;;;1.10;;
67100;SDS011;54019;61.746;16.106;2023-05-10T11:08:31;0.98;;;0.85;;
67100;SDS011;54019;61.746;16.106;2023-05-10T11:11:04;3.67;;;0.90;;
67100;SDS011;54019;61.746;16.106;2023-05-10T11:13:32;1.80;;;0.82;;
67100;SDS011;54019;61.746;16.106;2023-05-10T11:15:59;2.05;;;0.65;;
67100;SDS011;54019;61.746;16.106;2023-05-10T11:18:36;6.63;;;1.00;;
67100;SDS011;54019;61.746;16.106;2023-05-10T11:21:02;1.70;;;1.00;;
67100;SDS011;54019;61.746;16.106;2023-05-10T11:23:30;7.53;;;0.90;;
67100;SDS011;54019;61.746;16.106;2023-05-10T11:25:57;2.03;;;0.70;;
67100;SDS011;54019;61.746;16.106;2023-05-10T11:28:24;1.75;;;0.77;;
67100;SDS011;54019;61.746;16.106;2023-05-10T11:30:51;1.85;;;0.88;;
67100;SDS011;54019;61.746;16.106;2023-05-10T11:33:17;1.38;;;0.80;;
67100;SDS011;54019;61.746;16.106;2023-05-10T11:35:45;1.02;;;0.70;;
67100;SDS011;54019;61.746;16.106;2023-05-10T11:38:13;3.03;;;0.60;;
67100;SDS011;54019;61.746;16.106;2023-05-10T11:40:39;0.90;;;0.80;;
67100;SDS011;54019;61.746;16.106;2023-05-10T11:43:05;1.15;;;0.80;;
67100;SDS011;54019;61.746;16.106;2023-05-10T11:45:33;0.95;;;0.70;;
67100;SDS011;54019;61.746;16.106;2023-05-10T11:47:59;1.58;;;0.80;;
67100;SDS011;54019;61.746;16.106;2023-05-10T11:50:26;1.35;;;0.70;;
67100;SDS011;54019;61.746;16.106;2023-05-10T11:52:52;0.65;;;0.65;;
67100;SDS011;54019;61.746;16.106;2023-05-10T11:55:19;0.70;;;0.70;;
67100;SDS011;54019;61.746;16.106;2023-05-10T11:57:46;0.95;;;0.70;;
67100;SDS011;54019;61.746;16.106;2023-05-10T12:00:12;0.70;;;0.70;;
67100;SDS011;54019;61.746;16.106;2023-05-10T12:02:39;2.10;;;0.57;;
67100;SDS011;54019;61.746;16.106;2023-05-10T12:05:05;0.70;;;0.70;;
67100;SDS011;54019;61.746;16.106;2023-05-10T12:07:32;0.70;;;0.70;;
67100;SDS011;54019;61.746;16.106;2023-05-10T12:10:08;0.95;;;0.88;;
67100;SDS011;54019;61.746;16.106;2023-05-10T12:12:37;0.98;;;0.50;;
67100;SDS011;54019;61.746;16.106;2023-05-10T12:15:03;0.70;;;0.70;;
67100;SDS011;54019;61.746;16.106;2023-05-10T12:17:30;2.15;;;0.70;;
67100;SDS011;54019;61.746;16.106;2023-05-10T12:19:58;0.73;;;0.60;;
67100;SDS011;54019;61.746;16.106;2023-05-10T12:22:24;0.60;;;0.60;;
67100;SDS011;54019;61.746;16.106;2023-05-10T12:24:50;1.52;;;0.95;;
67100;SDS011;54019;61.746;16.106;2023-05-10T12:27:16;1.65;;;1.20;;
67100;SDS011;54019;61.746;16.106;2023-05-10T12:29:43;2.53;;;1.48;;
67100;SDS011;54019;61.746;16.106;2023-05-10T12:32:09;4.70;;;1.40;;
67100;SDS011;54019;61.746;16.106;2023-05-10T12:34:35;2.90;;;1.45;;
67100;SDS011;54019;61.746;16.106;2023-05-10T12:37:01;3.05;;;1.60;;
67100;SDS011;54019;61.746;16.106;2023-05-10T12:39:37;2.22;;;1.50;;
67100;SDS011;54019;61.746;16.106;2023-05-10T12:42:04;1.40;;;1.20;;
67100;SDS011;54019;61.746;16.106;2023-05-10T12:44:30;1.80;;;1.33;;
67100;SDS011;54019;61.746;16.106;2023-05-10T12:46:57;10.93;;;1.88;;
67100;SDS011;54019;61.746;16.106;2023-05-10T12:49:23;2.63;;;1.35;;
67100;SDS011;54019;61.746;16.106;2023-05-10T12:51:48;2.03;;;1.40;;
67100;SDS011;54019;61.746;16.106;2023-05-10T12:54:14;4.72;;;2.08;;
67100;SDS011;54019;61.746;16.106;2023-05-10T12:56:40;3.65;;;1.50;;
67100;SDS011;54019;61.746;16.106;2023-05-10T12:59:06;10.40;;;2.20;;
67100;SDS011;54019;61.746;16.106;2023-05-10T13:01:31;3.78;;;1.55;;
67100;SDS011;54019;61.746;16.106;2023-05-10T13:03:59;4.55;;;1.45;;
67100;SDS011;54019;61.746;16.106;2023-05-10T13:06:24;5.70;;;1.60;;
67100;SDS011;54019;61.746;16.106;2023-05-10T13:08:50;4.18;;;1.63;;
67100;SDS011;54019;61.746;16.106;2023-05-10T13:11:16;7.90;;;1.70;;
67100;SDS011;54019;61.746;16.106;2023-05-10T13:13:42;2.47;;;1.92;;
67100;SDS011;54019;61.746;16.106;2023-05-10T13:16:08;3.17;;;1.80;;
67100;SDS011;54019;61.746;16.106;2023-05-10T13:18:33;6.32;;;1.67;;
67100;SDS011;54019;61.746;16.106;2023-05-10T13:21:01;2.40;;;1.83;;
67100;SDS011;54019;61.746;16.106;2023-05-10T13:23:26;3.75;;;1.60;;
67100;SDS011;54019;61.746;16.106;2023-05-10T13:25:52;4.45;;;1.60;;
67100;SDS011;54019;61.746;16.106;2023-05-10T13:28:18;4.75;;;1.85;;
67100;SDS011;54019;61.746;16.106;2023-05-10T13:30:44;4.40;;;1.45;;
67100;SDS011;54019;61.746;16.106;2023-05-10T13:33:09;3.63;;;1.50;;
67100;SDS011;54019;61.746;16.106;2023-05-10T13:35:35;3.10;;;1.70;;
67100;SDS011;54019;61.746;16.106;2023-05-10T13:38:02;4.38;;;1.60;;
67100;SDS011;54019;61.746;16.106;2023-05-10T13:40:28;3.45;;;1.50;;
67100;SDS011;54019;61.746;16.106;2023-05-10T13:42:54;4.47;;;1.70;;
67100;SDS011;54019;61.746;16.106;2023-05-10T13:45:20;4.28;;;1.75;;
67100;SDS011;54019;61.746;16.106;2023-05-10T13:47:46;4.20;;;1.88;;
67100;SDS011;54019;61.746;16.106;2023-05-10T13:50:11;3.42;;;1.60;;
67100;SDS011;54019;61.746;16.106;2023-05-10T13:52:37;5.13;;;1.77;;
67100;SDS011;54019;61.746;16.106;2023-05-10T13:55:05;5.20;;;1.58;;
67100;SDS011;54019;61.746;16.106;2023-05-10T13:57:31;3.88;;;1.50;;
67100;SDS011;54019;61.746;16.106;2023-05-10T13:59:56;3.75;;;1.45;;
67100;SDS011;54019;61.746;16.106;2023-05-10T14:02:22;8.43;;;1.60;;
67100;SDS011;54019;61.746;16.106;2023-05-10T14:04:48;5.93;;;1.20;;
67100;SDS011;54019;61.746;16.106;2023-05-10T14:07:14;3.85;;;1.30;;
67100;SDS011;54019;61.746;16.106;2023-05-10T14:09:39;6.95;;;1.45;;
67100;SDS011;54019;61.746;16.106;2023-05-10T14:12:07;7.18;;;1.55;;
67100;SDS011;54019;61.746;16.106;2023-05-10T14:14:32;5.60;;;1.58;;
67100;SDS011;54019;61.746;16.106;2023-05-10T14:16:58;6.60;;;1.42;;
67100;SDS011;54019;61.746;16.106;2023-05-10T14:19:24;9.10;;;1.92;;
67100;SDS011;54019;61.746;16.106;2023-05-10T14:21:50;9.07;;;2.45;;
67100;SDS011;54019;61.746;16.106;2023-05-10T14:24:16;6.45;;;1.80;;
67100;SDS011;54019;61.746;16.106;2023-05-10T14:26:41;5.85;;;2.10;;
67100;SDS011;54019;61.746;16.106;2023-05-10T14:29:08;7.55;;;2.20;;
67100;SDS011;54019;61.746;16.106;2023-05-10T14:31:34;9.70;;;2.50;;
67100;SDS011;54019;61.746;16.106;2023-05-10T14:34:00;7.40;;;1.90;;
67100;SDS011;54019;61.746;16.106;2023-05-10T14:36:26;8.52;;;1.98;;
67100;SDS011;54019;61.746;16.106;2023-05-10T14:38:51;7.13;;;1.98;;
67100;SDS011;54019;61.746;16.106;2023-05-10T14:41:17;4.32;;;1.90;;